Time;durP1;ratioP1;P1;durP2;ratioP2;P2;SDS_P1;SDS_P2;PMS_P1;PMS_P2;Temp;Humidity;BMP_temperature;BMP_pressure;BME280_temperature;BME280_humidity;BME280_pressure;Samples;Min_cycle;Max_cycle;Signal;HPM_P1;HPM_P2
2022/05/05 00:01:12;;;;;;;7.47;4.32;;;12.50;90.90;;;;;;5051139;28;20190;-63
2022/05/05 00:03:39;;;;;;;5.03;3.08;;;12.50;90.50;;;;;;5051802;28;20648;-63
2022/05/05 00:06:06;;;;;;;5.83;3.03;;;12.50;90.50;;;;;;5051364;28;20193;-63
2022/05/05 00:08:34;;;;;;;5.15;2.78;;;12.50;90.90;;;;;;5052128;28;20523;-63
2022/05/05 00:16:30;;;;;;;3.85;2.45;;;12.40;91.00;;;;;;5050166;28;20251;-63
2022/05/05 00:18:57;;;;;;;3.30;2.30;;;12.40;91.30;;;;;;5053717;28;20198;-63
2022/05/05 00:21:24;;;;;;;5.35;2.53;;;12.50;91.20;;;;;;5054769;28;20212;-62
2022/05/05 00:23:52;;;;;;;3.90;2.90;;;12.40;91.10;;;;;;5055401;28;20230;-62
2022/05/05 00:26:19;;;;;;;3.10;1.73;;;12.40;91.30;;;;;;5054653;28;20289;-64
2022/05/05 00:28:46;;;;;;;5.45;2.90;;;12.30;91.70;;;;;;5055420;28;20520;-63
2022/05/05 00:31:12;;;;;;;2.83;2.25;;;12.20;91.70;;;;;;5054559;28;20569;-63
2022/05/05 00:33:40;;;;;;;4.03;2.65;;;12.20;91.80;;;;;;5055283;28;20281;-63
2022/05/05 00:36:07;;;;;;;3.15;2.30;;;12.20;91.80;;;;;;5054497;28;20244;-63
2022/05/05 00:38:34;;;;;;;2.90;2.10;;;12.20;92.00;;;;;;5055163;28;20273;-63
2022/05/05 00:41:02;;;;;;;3.75;2.60;;;12.20;92.00;;;;;;5054688;28;20282;-68
2022/05/05 00:43:31;;;;;;;5.18;3.05;;;12.20;91.90;;;;;;5035276;28;20346;-63
2022/05/05 00:45:58;;;;;;;3.72;2.05;;;12.30;91.70;;;;;;5043204;28;20719;-62
2022/05/05 00:48:26;;;;;;;3.72;2.20;;;12.30;91.50;;;;;;5055145;28;20196;-63
2022/05/05 00:50:53;;;;;;;2.95;2.15;;;12.20;91.60;;;;;;5054205;28;20189;-63
2022/05/05 00:53:20;;;;;;;3.15;2.00;;;12.20;91.70;;;;;;5054591;28;20261;-63
2022/05/05 00:55:50;;;;;;;2.88;2.10;;;12.10;91.90;;;;;;5053955;28;20186;-62
2022/05/05 00:58:18;;;;;;;2.95;2.15;;;12.00;92.00;;;;;;5054926;28;20708;-62
2022/05/05 01:00:46;;;;;;;5.35;1.98;;;11.90;92.20;;;;;;5054011;28;20213;-63
2022/05/05 01:03:15;;;;;;;3.20;1.73;;;11.90;92.40;;;;;;5053621;28;20277;-63
2022/05/05 01:05:42;;;;;;;5.60;1.95;;;11.80;92.50;;;;;;5053343;28;20210;-63
2022/05/05 01:08:09;;;;;;;2.85;2.33;;;11.80;92.70;;;;;;5054593;28;20190;-63
2022/05/05 01:10:36;;;;;;;2.75;1.92;;;11.80;92.50;;;;;;5053650;28;20502;-63
2022/05/05 01:13:03;;;;;;;3.10;2.38;;;11.80;92.40;;;;;;5054473;28;20634;-63
2022/05/05 01:15:33;;;;;;;3.50;2.25;;;11.80;92.30;;;;;;5053884;28;20199;-65
2022/05/05 01:17:59;;;;;;;3.45;2.30;;;11.80;92.10;;;;;;5054568;28;20187;-62
2022/05/05 01:20:26;;;;;;;4.75;2.38;;;11.80;92.00;;;;;;5054098;28;20455;-63
2022/05/05 01:22:55;;;;;;;6.63;2.30;;;11.80;91.80;;;;;;5054157;28;20237;-62
2022/05/05 01:28:12;;;;;;;3.97;2.53;;;11.80;91.30;;;;;;4996926;28;20192;-63
2022/05/05 01:30:40;;;;;;;3.58;2.60;;;11.60;91.60;;;;;;5053615;28;20559;-63
2022/05/05 01:33:11;;;;;;;5.70;3.28;;;11.50;91.90;;;;;;5053249;28;20283;-63
2022/05/05 01:35:39;;;;;;;4.10;2.80;;;11.50;92.00;;;;;;5054230;28;20232;-63
2022/05/05 01:38:08;;;;;;;3.47;2.63;;;11.40;92.30;;;;;;5053206;28;20186;-63
2022/05/05 01:40:36;;;;;;;3.55;2.55;;;11.40;92.10;;;;;;5052566;28;20198;-67
2022/05/05 01:43:04;;;;;;;3.92;2.28;;;11.40;92.20;;;;;;5054142;28;20190;-63
2022/05/05 01:45:31;;;;;;;2.90;1.85;;;11.40;92.70;;;;;;5053710;28;20201;-64
2022/05/05 01:47:58;;;;;;;4.80;2.85;;;11.40;93.00;;;;;;5051038;28;20189;-62
2022/05/05 01:50:26;;;;;;;2.88;1.90;;;11.40;92.90;;;;;;5053371;28;20202;-63
2022/05/05 01:52:54;;;;;;;6.18;2.28;;;11.40;93.10;;;;;;5053578;28;20314;-63
2022/05/05 01:55:22;;;;;;;3.30;2.30;;;11.30;93.10;;;;;;5052916;28;20280;-65
2022/05/05 01:57:50;;;;;;;3.90;2.08;;;11.30;93.00;;;;;;5053765;28;20279;-63
2022/05/05 02:00:18;;;;;;;3.53;2.20;;;11.30;92.70;;;;;;5052527;28;20190;-63
2022/05/05 02:02:46;;;;;;;5.22;2.03;;;11.20;92.30;;;;;;5053540;28;20216;-63
2022/05/05 02:05:14;;;;;;;3.67;2.30;;;11.20;92.30;;;;;;5052005;28;20644;-64
2022/05/05 02:07:42;;;;;;;4.82;3.28;;;11.20;92.40;;;;;;5053217;28;20230;-64
2022/05/05 02:10:10;;;;;;;5.80;3.55;;;11.10;92.70;;;;;;5052744;28;20217;-63
2022/05/05 02:12:41;;;;;;;5.75;3.70;;;11.10;92.70;;;;;;5053347;28;20218;-64
2022/05/05 02:15:10;;;;;;;5.75;3.70;;;11.00;92.80;;;;;;5052330;28;20281;-64
2022/05/05 02:17:37;;;;;;;6.70;3.20;;;11.00;92.50;;;;;;5053474;28;20597;-64
2022/05/05 02:20:07;;;;;;;4.80;3.67;;;11.00;92.30;;;;;;5052719;28;20294;-64
2022/05/05 02:22:35;;;;;;;6.28;3.25;;;10.90;92.50;;;;;;5052256;28;20270;-64
2022/05/05 02:25:02;;;;;;;6.25;3.10;;;10.80;92.70;;;;;;5053146;28;20196;-64
2022/05/05 02:27:29;;;;;;;5.57;2.42;;;10.80;92.80;;;;;;5052516;28;20665;-64
2022/05/05 02:29:57;;;;;;;3.80;2.47;;;10.70;93.10;;;;;;5052003;28;20194;-64
2022/05/05 02:32:24;;;;;;;16.70;11.60;;;10.80;93.30;;;;;;5052485;28;20221;-64
2022/05/05 02:34:51;;;;;;;5.25;4.55;;;10.90;93.20;;;;;;5052855;28;20332;-64
2022/05/05 02:40:10;;;;;;;3.97;2.60;;;10.80;91.60;;;;;;4993752;28;20691;-64
2022/05/05 02:42:37;;;;;;;4.07;2.80;;;10.80;91.30;;;;;;5032132;28;20214;-64
2022/05/05 02:45:06;;;;;;;3.15;2.15;;;10.70;91.20;;;;;;5039914;28;20186;-64
2022/05/05 02:47:33;;;;;;;3.22;2.22;;;10.70;91.40;;;;;;5052338;28;20265;-64
2022/05/05 02:50:00;;;;;;;4.85;2.55;;;10.70;91.50;;;;;;5052134;28;20266;-64
2022/05/05 02:52:27;;;;;;;3.55;1.98;;;10.70;91.60;;;;;;5052311;28;20227;-64
2022/05/05 02:54:55;;;;;;;3.20;2.20;;;10.60;91.50;;;;;;5051710;28;20225;-64
2022/05/05 02:57:23;;;;;;;3.45;2.67;;;10.60;91.70;;;;;;5052359;28;20240;-64
2022/05/05 02:59:50;;;;;;;3.55;2.40;;;10.60;91.80;;;;;;5051854;28;20186;-64
2022/05/05 03:02:19;;;;;;;2.92;2.30;;;10.50;92.00;;;;;;5052234;28;20285;-64
2022/05/05 03:04:46;;;;;;;3.20;2.67;;;10.50;92.10;;;;;;5051777;28;20191;-64
2022/05/05 03:07:14;;;;;;;3.42;2.80;;;10.50;91.90;;;;;;5052286;28;20285;-64
2022/05/05 03:09:42;;;;;;;3.38;2.08;;;10.50;91.70;;;;;;5051584;28;20675;-64
2022/05/05 03:12:11;;;;;;;3.00;2.50;;;10.40;90.90;;;;;;5052265;28;20281;-63
2022/05/05 03:14:38;;;;;;;3.20;2.17;;;10.40;91.00;;;;;;5051181;28;20189;-64
2022/05/05 03:17:05;;;;;;;3.28;2.10;;;10.30;91.10;;;;;;5051802;28;20179;-64
2022/05/05 03:19:34;;;;;;;5.53;2.72;;;10.30;91.20;;;;;;5051501;28;20197;-64
2022/05/05 03:22:01;;;;;;;4.90;3.50;;;10.30;91.40;;;;;;5052091;28;20751;-65
2022/05/05 03:24:27;;;;;;;5.55;3.40;;;10.30;91.40;;;;;;5051460;28;20481;-64
2022/05/05 03:26:54;;;;;;;4.00;3.30;;;10.20;91.60;;;;;;5051386;28;20281;-64
2022/05/05 03:29:21;;;;;;;4.57;3.65;;;10.20;92.20;;;;;;5051605;28;20301;-69
2022/05/05 03:31:48;;;;;;;5.45;4.45;;;10.30;92.50;;;;;;5051926;28;20193;-63
2022/05/05 03:34:15;;;;;;;5.22;3.22;;;10.30;92.50;;;;;;5051887;28;20313;-64
2022/05/05 03:36:43;;;;;;;4.10;3.55;;;10.30;91.80;;;;;;5051549;28;20631;-64
2022/05/05 03:39:10;;;;;;;3.80;3.05;;;10.20;92.10;;;;;;5052068;28;20190;-64
2022/05/05 03:41:37;;;;;;;4.03;3.40;;;10.20;92.20;;;;;;5051324;28;20186;-63
2022/05/05 03:44:07;;;;;;;3.83;2.78;;;10.20;91.90;;;;;;5052125;28;20195;-64
2022/05/05 03:46:34;;;;;;;4.70;3.22;;;10.20;92.00;;;;;;5049704;28;20297;-64
2022/05/05 03:49:01;;;;;;;5.15;3.47;;;10.30;92.00;;;;;;5052128;28;20352;-65
2022/05/05 03:51:28;;;;;;;4.45;3.33;;;10.30;92.10;;;;;;5051449;28;20186;-64
2022/05/05 03:53:56;;;;;;;7.05;3.50;;;10.30;92.00;;;;;;5054971;28;20304;-63
2022/05/05 03:56:23;;;;;;;4.50;3.22;;;10.30;92.00;;;;;;5054934;28;20191;-63
2022/05/05 03:58:50;;;;;;;5.03;2.92;;;10.40;92.10;;;;;;5055635;28;20194;-63
2022/05/05 04:01:17;;;;;;;4.15;2.60;;;10.30;92.10;;;;;;5054917;28;20645;-64
2022/05/05 04:03:44;;;;;;;6.97;3.63;;;10.40;92.50;;;;;;5056317;28;20617;-64
2022/05/05 04:06:11;;;;;;;4.28;3.42;;;10.40;92.20;;;;;;5055212;28;20257;-64
2022/05/05 04:08:39;;;;;;;3.50;2.72;;;10.40;92.10;;;;;;5056046;28;20205;-64
2022/05/05 04:11:08;;;;;;;4.35;2.80;;;10.40;92.30;;;;;;5055042;28;20218;-65
2022/05/05 04:13:36;;;;;;;6.32;3.08;;;10.40;92.40;;;;;;5055804;28;20254;-63
2022/05/05 04:16:04;;;;;;;6.05;4.25;;;10.30;92.00;;;;;;5054848;28;20663;-64
2022/05/05 04:18:31;;;;;;;4.18;2.90;;;10.20;92.40;;;;;;5055749;28;20663;-65
2022/05/05 04:20:58;;;;;;;4.05;3.05;;;10.20;92.40;;;;;;5054959;28;20200;-64
2022/05/05 04:23:25;;;;;;;3.88;2.75;;;10.20;92.70;;;;;;5055510;28;20263;-64
2022/05/05 04:25:53;;;;;;;3.90;2.90;;;10.20;93.00;;;;;;5055198;28;20232;-65
2022/05/05 04:28:23;;;;;;;3.88;3.08;;;10.30;93.00;;;;;;5055458;28;20695;-64
2022/05/05 04:30:50;;;;;;;4.20;3.80;;;10.40;93.00;;;;;;5054746;28;20204;-64
2022/05/05 04:33:17;;;;;;;5.45;3.00;;;10.40;92.60;;;;;;5055277;28;20253;-65
2022/05/05 04:35:45;;;;;;;6.30;3.42;;;10.50;92.60;;;;;;5054653;28;20182;-63
2022/05/05 04:38:12;;;;;;;5.28;3.20;;;10.60;92.70;;;;;;5055381;28;20191;-64
2022/05/05 04:40:40;;;;;;;3.45;2.47;;;10.70;92.70;;;;;;5055086;28;20268;-64
2022/05/05 04:43:07;;;;;;;3.42;2.58;;;10.70;92.80;;;;;;5055657;28;20197;-64
2022/05/05 04:45:35;;;;;;;4.45;3.05;;;10.90;93.00;;;;;;5053390;28;20641;-65
2022/05/05 04:48:03;;;;;;;5.22;2.80;;;11.00;93.20;;;;;;5054336;28;20179;-64
2022/05/05 04:50:29;;;;;;;3.78;2.30;;;11.10;92.90;;;;;;5054558;28;20196;-64
2022/05/05 04:52:56;;;;;;;4.90;2.33;;;11.10;93.00;;;;;;5055151;28;20214;-63
2022/05/05 04:55:23;;;;;;;2.80;2.15;;;11.20;93.00;;;;;;5054728;28;20202;-65
2022/05/05 04:57:50;;;;;;;3.92;2.20;;;11.30;92.80;;;;;;5051895;28;21224;-64
2022/05/05 05:00:18;;;;;;;9.35;2.72;;;11.40;93.00;;;;;;5054912;28;20196;-64
2022/05/05 05:02:46;;;;;;;4.68;2.85;;;11.50;92.80;;;;;;5054200;28;20274;-63
2022/05/05 05:05:13;;;;;;;4.15;2.25;;;11.60;92.80;;;;;;5049648;28;20195;-65
2022/05/05 05:07:40;;;;;;;4.10;2.33;;;11.70;92.70;;;;;;5052312;28;20670;-66
2022/05/05 05:10:09;;;;;;;4.25;2.55;;;11.90;92.60;;;;;;5048571;28;20190;-64
2022/05/05 05:12:36;;;;;;;3.65;2.47;;;12.00;92.40;;;;;;5052004;28;20213;-64
2022/05/05 05:15:04;;;;;;;3.55;2.03;;;12.10;92.20;;;;;;5053301;28;20273;-68
2022/05/05 05:17:31;;;;;;;4.45;2.38;;;12.20;92.50;;;;;;5051056;28;20581;-65
2022/05/05 05:19:59;;;;;;;3.00;2.35;;;12.30;92.70;;;;;;5052946;28;20187;-64
2022/05/05 05:22:26;;;;;;;3.50;2.10;;;12.40;92.60;;;;;;5050750;28;20216;-64
2022/05/05 05:24:53;;;;;;;3.70;2.72;;;12.50;92.10;;;;;;5052716;28;20190;-64
2022/05/05 05:27:20;;;;;;;2.88;2.20;;;12.60;91.70;;;;;;5050520;28;20186;-64
2022/05/05 05:29:46;;;;;;;5.25;2.58;;;12.70;91.20;;;;;;5052666;28;20601;-64
2022/05/05 05:32:13;;;;;;;3.10;2.25;;;12.70;91.00;;;;;;5051502;28;20653;-64
2022/05/05 05:34:40;;;;;;;3.55;2.65;;;12.80;90.50;;;;;;5049215;28;20214;-64
2022/05/05 05:37:09;;;;;;;5.00;2.80;;;12.80;90.90;;;;;;5051606;28;20190;-64
2022/05/05 05:39:37;;;;;;;3.53;2.55;;;12.90;90.90;;;;;;5052185;28;20202;-64
2022/05/05 05:42:06;;;;;;;3.45;2.25;;;13.00;90.90;;;;;;5051918;28;20244;-64
2022/05/05 05:44:33;;;;;;;4.23;2.17;;;13.20;90.90;;;;;;5051419;28;20632;-66
2022/05/05 05:47:00;;;;;;;3.10;2.47;;;13.20;90.70;;;;;;5046386;28;20818;-70
2022/05/05 05:49:28;;;;;;;4.60;2.40;;;13.40;91.00;;;;;;5046884;28;20802;-65
2022/05/05 05:51:55;;;;;;;6.47;2.60;;;13.60;91.10;;;;;;5051319;28;20449;-65
2022/05/05 05:54:23;;;;;;;2.70;2.20;;;13.70;90.70;;;;;;5051127;28;20580;-65
2022/05/05 05:56:50;;;;;;;3.13;1.97;;;13.90;90.00;;;;;;5051136;28;20528;-64
2022/05/05 05:59:17;;;;;;;2.90;2.10;;;14.00;88.70;;;;;;5049041;28;20528;-64
2022/05/05 06:04:29;;;;;;;4.67;2.77;;;14.20;85.30;;;;;;5046706;28;20526;-64
2022/05/05 06:06:56;;;;;;;4.20;2.70;;;14.30;85.70;;;;;;5050446;28;20436;-65
2022/05/05 06:09:24;;;;;;;3.40;2.30;;;14.40;84.50;;;;;;5049742;28;20540;-65
2022/05/05 06:11:51;;;;;;;4.03;2.47;;;14.50;84.20;;;;;;5045080;28;20429;-64
2022/05/05 06:14:18;;;;;;;3.23;2.60;;;14.50;84.30;;;;;;5049761;28;20554;-65
2022/05/05 06:16:45;;;;;;;5.93;2.27;;;14.60;84.60;;;;;;5048337;28;20472;-64
2022/05/05 06:19:12;;;;;;;4.37;2.97;;;14.70;84.70;;;;;;5050769;28;20483;-64
2022/05/05 06:21:39;;;;;;;3.80;2.80;;;14.80;84.80;;;;;;5045225;28;20441;-64
2022/05/05 06:24:06;;;;;;;4.20;2.30;;;14.90;85.00;;;;;;5050671;28;20526;-65
2022/05/05 06:26:35;;;;;;;3.10;2.70;;;15.00;85.00;;;;;;5047902;28;20452;-64
2022/05/05 06:29:02;;;;;;;4.00;2.80;;;15.20;84.90;;;;;;5053367;28;20445;-64
2022/05/05 06:31:29;;;;;;;2.50;2.03;;;15.30;82.30;;;;;;5050384;28;20457;-64
2022/05/05 06:33:55;;;;;;;3.53;2.53;;;15.40;81.10;;;;;;5052776;28;20480;-66
2022/05/05 06:36:23;;;;;;;4.00;2.87;;;15.50;80.70;;;;;;5053106;28;20447;-64
2022/05/05 06:38:54;;;;;;;4.77;3.03;;;15.70;80.20;;;;;;5053234;28;20849;-64
2022/05/05 06:41:21;;;;;;;3.13;2.50;;;15.90;78.50;;;;;;5053188;28;20546;-65
2022/05/05 06:43:50;;;;;;;5.13;2.30;;;16.00;79.20;;;;;;5053005;28;20495;-65
2022/05/05 06:46:17;;;;;;;2.77;1.90;;;16.20;79.60;;;;;;5052772;28;20465;-64
2022/05/05 06:48:44;;;;;;;4.57;2.87;;;16.40;78.70;;;;;;5053079;28;20443;-65
2022/05/05 06:51:11;;;;;;;7.03;3.80;;;16.60;78.90;;;;;;5053012;28;20539;-65
2022/05/05 06:53:38;;;;;;;3.20;2.77;;;16.80;76.50;;;;;;5052411;28;21006;-64
2022/05/05 06:56:05;;;;;;;8.23;3.00;;;17.00;73.80;;;;;;5052959;28;20441;-64
2022/05/05 06:58:32;;;;;;;7.57;3.13;;;17.00;71.60;;;;;;5052938;28;20441;-65
2022/05/05 07:03:45;;;;;;;4.17;2.70;;;17.50;70.30;;;;;;5053020;28;20440;-64
2022/05/05 07:06:11;;;;;;;3.23;2.37;;;17.70;71.00;;;;;;5052689;28;20847;-64
2022/05/05 07:11:18;;;;;;;3.00;2.20;;;17.90;68.10;;;;;;5019388;28;20424;-64
2022/05/05 07:13:46;;;;;;;3.33;2.27;;;18.00;65.10;;;;;;5052193;28;20563;-64
2022/05/05 07:16:14;;;;;;;3.07;2.27;;;18.20;66.40;;;;;;5052591;28;20468;-64
2022/05/05 07:18:41;;;;;;;3.13;2.33;;;18.50;66.90;;;;;;5052367;28;20524;-65
2022/05/05 07:21:08;;;;;;;3.13;1.73;;;18.70;67.30;;;;;;5052426;28;20532;-64
2022/05/05 07:23:35;;;;;;;4.53;2.80;;;18.90;63.50;;;;;;5052659;28;20535;-65
2022/05/05 07:26:02;;;;;;;2.90;2.47;;;19.10;60.50;;;;;;5052670;28;20439;-64
2022/05/05 07:28:29;;;;;;;3.43;2.20;;;19.10;60.10;;;;;;5054599;28;20441;-64
2022/05/05 07:30:56;;;;;;;4.10;2.40;;;19.20;59.50;;;;;;5056609;28;20482;-65
2022/05/05 07:33:25;;;;;;;2.83;2.07;;;19.20;60.10;;;;;;5056535;28;20441;-64
2022/05/05 07:35:52;;;;;;;3.67;2.40;;;19.40;58.60;;;;;;5056587;28;20543;-65
2022/05/05 07:38:18;;;;;;;3.27;2.40;;;19.60;58.20;;;;;;5056633;28;20515;-64
2022/05/05 07:40:45;;;;;;;5.57;2.73;;;19.90;59.60;;;;;;5056577;28;20528;-64
2022/05/05 07:43:12;;;;;;;3.87;2.57;;;20.10;57.50;;;;;;5056299;28;20476;-64
2022/05/05 07:45:39;;;;;;;3.37;2.10;;;20.30;58.50;;;;;;5056193;28;20455;-64
2022/05/05 07:48:07;;;;;;;4.20;2.10;;;20.50;58.30;;;;;;5056540;28;20436;-66
2022/05/05 07:50:36;;;;;;;4.07;2.33;;;20.80;57.00;;;;;;5056190;28;20444;-65
2022/05/05 07:53:03;;;;;;;5.43;2.80;;;21.10;56.70;;;;;;5056383;28;20477;-64
2022/05/05 07:55:30;;;;;;;3.20;2.63;;;21.30;56.60;;;;;;5056311;28;20567;-64
2022/05/05 07:57:58;;;;;;;5.03;3.20;;;21.50;56.00;;;;;;5056227;28;20539;-65
2022/05/05 08:00:25;;;;;;;5.07;3.57;;;21.70;54.40;;;;;;5056188;28;20526;-65
2022/05/05 08:02:52;;;;;;;7.97;3.63;;;21.80;52.40;;;;;;5055967;28;20452;-64
2022/05/05 08:05:19;;;;;;;3.73;3.13;;;21.90;52.30;;;;;;5055941;28;20861;-65
2022/05/05 08:07:49;;;;;;;4.23;3.30;;;22.00;52.40;;;;;;5056058;28;20437;-64
2022/05/05 08:10:17;;;;;;;6.43;3.67;;;22.10;50.20;;;;;;5055871;28;20528;-65
2022/05/05 08:12:45;;;;;;;4.13;3.73;;;22.00;49.90;;;;;;5055606;28;20447;-64
2022/05/05 08:15:13;;;;;;;4.80;3.40;;;21.90;49.80;;;;;;5055649;28;20963;-65
2022/05/05 08:17:40;;;;;;;5.70;3.57;;;22.00;50.70;;;;;;5055687;28;20439;-65
2022/05/05 08:20:09;;;;;;;5.00;3.17;;;22.10;51.60;;;;;;5055554;28;20535;-64
2022/05/05 08:22:36;;;;;;;5.47;3.67;;;22.30;52.70;;;;;;5055601;28;20441;-64
2022/05/05 08:30:34;;;;;;;4.20;3.33;;;22.40;50.10;;;;;;5052839;28;20548;-67
2022/05/05 08:33:01;;;;;;;4.90;3.43;;;22.30;49.50;;;;;;5054308;28;20780;-65
2022/05/05 08:35:28;;;;;;;4.40;3.43;;;22.30;48.60;;;;;;5054980;28;20515;-65
2022/05/05 08:37:56;;;;;;;4.33;3.87;;;22.30;50.20;;;;;;5054309;28;20437;-64
2022/05/05 08:40:26;;;;;;;5.53;3.20;;;22.40;49.60;;;;;;5052480;28;20520;-64
2022/05/05 08:42:53;;;;;;;5.27;3.87;;;22.40;49.30;;;;;;5054665;28;20788;-64
2022/05/05 08:45:21;;;;;;;4.30;3.80;;;22.50;51.00;;;;;;5055096;28;20443;-64
2022/05/05 08:47:49;;;;;;;3.90;3.30;;;22.60;50.60;;;;;;5054693;28;20544;-64
2022/05/05 08:50:16;;;;;;;4.10;2.93;;;22.90;50.60;;;;;;5049937;28;20460;-64
2022/05/05 08:52:48;;;;;;;4.83;3.77;;;22.90;48.80;;;;;;5054320;28;20441;-65
2022/05/05 08:55:16;;;;;;;4.80;3.60;;;22.90;47.50;;;;;;5054506;28;20485;-65
2022/05/05 08:57:45;;;;;;;4.80;3.73;;;22.90;47.70;;;;;;5054842;28;20519;-64
2022/05/05 09:00:14;;;;;;;6.73;4.13;;;22.90;47.90;;;;;;5054476;28;20528;-64
2022/05/05 09:02:41;;;;;;;4.20;3.30;;;22.90;46.90;;;;;;5054589;28;20459;-64
2022/05/05 09:05:10;;;;;;;3.67;3.23;;;22.80;47.00;;;;;;5054843;28;20533;-65
2022/05/05 09:07:48;;;;;;;6.80;4.23;;;22.90;47.90;;;;;;5054922;28;20441;-65
2022/05/05 09:10:16;;;;;;;5.50;4.20;;;23.00;47.70;;;;;;5054842;28;20437;-64
2022/05/05 09:12:57;;;;;;;6.03;4.10;;;23.10;45.20;;;;;;5054865;28;20433;-64
2022/05/05 09:15:31;;;;;;;5.00;4.20;;;23.00;45.80;;;;;;5054667;28;20488;-64
2022/05/05 09:18:12;;;;;;;5.80;4.50;;;22.90;46.50;;;;;;5054597;28;20443;-64
2022/05/05 09:20:39;;;;;;;4.77;4.20;;;22.90;46.90;;;;;;5054453;28;20441;-65
2022/05/05 09:23:06;;;;;;;4.70;3.80;;;22.80;46.30;;;;;;5054598;28;20528;-65
2022/05/05 09:25:54;;;;;;;4.90;3.70;;;22.90;46.70;;;;;;5054449;28;20437;-65
2022/05/05 09:28:24;;;;;;;5.90;3.77;;;23.10;47.70;;;;;;5049753;28;20638;-64
2022/05/05 09:30:52;;;;;;;5.37;3.70;;;23.40;47.20;;;;;;5054449;28;20937;-65
2022/05/05 09:33:37;;;;;;;4.47;4.00;;;23.60;46.90;;;;;;5054545;28;20855;-64
2022/05/05 09:36:06;;;;;;;5.47;4.50;;;23.80;42.50;;;;;;5054267;28;20491;-65
2022/05/05 09:38:48;;;;;;;6.73;6.00;;;23.80;44.10;;;;;;5054340;28;20441;-66
2022/05/05 09:41:15;;;;;;;5.47;4.23;;;23.70;43.70;;;;;;5054249;28;20471;-65
2022/05/05 09:43:43;;;;;;;5.60;4.50;;;23.60;43.80;;;;;;5054108;28;20531;-64
2022/05/05 09:46:31;;;;;;;4.73;3.80;;;23.60;43.40;;;;;;5053671;28;20456;-64
2022/05/05 09:49:07;;;;;;;5.80;4.97;;;23.60;44.80;;;;;;5053723;28;20519;-64
2022/05/05 09:51:42;;;;;;;6.10;4.23;;;23.70;41.00;;;;;;5053932;28;20441;-65
2022/05/05 09:59:49;;;;;;;5.60;4.50;;;23.60;41.70;;;;;;5053713;28;20425;-64
2022/05/05 10:05:22;;;;;;;4.70;4.03;;;23.40;42.70;;;;;;5014519;28;20423;-64
2022/05/05 10:07:53;;;;;;;4.70;3.60;;;23.40;41.80;;;;;;5053682;28;20438;-64
2022/05/05 10:10:21;;;;;;;3.93;3.47;;;23.40;41.60;;;;;;5053725;28;20528;-65
2022/05/05 10:12:49;;;;;;;4.30;3.40;;;23.40;41.50;;;;;;5053486;28;20433;-64
2022/05/05 10:15:18;;;;;;;5.57;3.50;;;23.50;44.00;;;;;;5053665;28;20531;-65
2022/05/05 10:17:45;;;;;;;5.50;3.80;;;23.70;43.70;;;;;;5053338;28;20445;-64
2022/05/05 10:20:13;;;;;;;3.20;2.73;;;23.90;42.10;;;;;;5053459;28;20437;-65
2022/05/05 10:22:49;;;;;;;3.90;2.70;;;24.10;43.50;;;;;;5053458;28;20444;-64
2022/05/05 10:25:22;;;;;;;3.63;2.87;;;24.30;43.70;;;;;;5053434;28;20442;-64
2022/05/05 10:27:49;;;;;;;4.23;2.77;;;24.70;42.50;;;;;;5053488;28;20437;-64
2022/05/05 10:30:31;;;;;;;4.40;3.13;;;25.00;42.90;;;;;;5053314;28;20479;-65
2022/05/05 10:32:58;;;;;;;4.83;3.47;;;25.30;41.30;;;;;;5053243;28;20434;-64
2022/05/05 10:35:26;;;;;;;5.83;2.80;;;25.40;40.50;;;;;;5053077;28;20484;-64
2022/05/05 10:37:53;;;;;;;5.93;3.03;;;25.60;41.00;;;;;;5053139;28;20452;-65
2022/05/05 10:40:20;;;;;;;4.67;3.20;;;25.90;40.30;;;;;;5053515;28;20470;-65
2022/05/05 10:42:51;;;;;;;4.53;3.50;;;26.00;37.60;;;;;;5053212;28;20524;-64
2022/05/05 10:45:20;;;;;;;4.17;3.33;;;25.90;37.40;;;;;;5053027;28;20443;-65
2022/05/05 10:48:28;;;;;;;4.40;3.00;;;25.80;36.90;;;;;;5052931;28;20549;-64
2022/05/05 10:51:07;;;;;;;4.03;3.30;;;25.80;37.00;;;;;;5052963;28;20444;-65
2022/05/05 10:53:40;;;;;;;4.40;3.00;;;26.00;38.60;;;;;;5053004;28;20776;-66
2022/05/05 10:56:27;;;;;;;3.83;2.93;;;26.30;38.20;;;;;;5052979;28;21053;-66
2022/05/05 10:59:05;;;;;;;3.07;2.77;;;26.50;36.70;;;;;;5052724;28;20439;-65
2022/05/05 11:01:57;;;;;;;4.20;2.90;;;26.60;37.70;;;;;;5052570;28;20830;-65
2022/05/05 11:04:32;;;;;;;3.33;2.80;;;26.60;36.10;;;;;;5049192;28;20441;-64
2022/05/05 11:07:29;;;;;;;4.83;3.47;;;26.50;35.90;;;;;;5051112;28;20445;-64
2022/05/05 11:09:57;;;;;;;4.53;3.60;;;26.20;35.40;;;;;;5048743;28;20803;-64
2022/05/05 11:12:25;;;;;;;3.93;3.10;;;26.10;36.40;;;;;;5050899;28;20444;-64
2022/05/05 11:23:33;;;;;;;3.80;3.03;;;26.20;35.80;;;;;;5051371;28;20473;-65
2022/05/05 11:26:01;;;;;;;4.40;3.20;;;26.00;36.40;;;;;;5050115;28;20445;-65
2022/05/05 11:28:31;;;;;;;5.10;3.23;;;26.00;36.70;;;;;;5050750;28;20454;-65
2022/05/05 11:30:58;;;;;;;4.97;2.97;;;26.10;38.10;;;;;;5050328;28;20441;-64
2022/05/05 11:33:27;;;;;;;3.70;2.80;;;26.30;37.10;;;;;;5050139;28;20453;-65
2022/05/05 11:35:56;;;;;;;3.80;3.00;;;26.40;37.80;;;;;;5050259;28;20512;-65
2022/05/05 11:38:23;;;;;;;3.80;2.60;;;26.40;38.20;;;;;;5048111;28;20451;-64
2022/05/05 11:41:05;;;;;;;4.17;2.70;;;26.50;36.90;;;;;;5049349;28;20911;-64
2022/05/05 11:46:18;;;;;;;5.30;2.33;;;26.40;35.70;;;;;;5050129;28;20480;-64
2022/05/05 11:48:53;;;;;;;3.37;2.37;;;26.20;35.90;;;;;;5051015;28;20447;-65
2022/05/05 11:51:25;;;;;;;3.67;2.60;;;26.20;36.00;;;;;;5049937;28;20453;-64
2022/05/05 11:54:00;;;;;;;4.53;3.10;;;26.40;35.90;;;;;;5045940;28;20521;-65
2022/05/05 11:56:28;;;;;;;4.57;2.90;;;26.40;35.60;;;;;;5048087;28;20841;-65
2022/05/05 12:01:42;;;;;;;4.73;2.77;;;26.50;35.80;;;;;;5050372;28;20506;-64
2022/05/05 12:04:12;;;;;;;2.90;2.37;;;26.40;34.60;;;;;;5051941;28;20445;-66
2022/05/05 12:06:40;;;;;;;5.03;2.43;;;26.40;35.10;;;;;;5052032;28;20437;-65
2022/05/05 12:09:08;;;;;;;4.20;2.40;;;26.50;36.20;;;;;;5052352;28;20524;-66
2022/05/05 12:11:36;;;;;;;5.97;2.83;;;26.60;35.60;;;;;;5052125;28;20519;-65
2022/05/05 12:14:05;;;;;;;3.90;2.40;;;26.60;35.10;;;;;;5053901;28;20437;-64
2022/05/05 12:16:34;;;;;;;3.33;2.13;;;26.60;35.80;;;;;;5056042;28;20502;-66
2022/05/05 12:19:01;;;;;;;3.53;1.90;;;26.50;35.60;;;;;;5055988;28;20443;-64
2022/05/05 12:21:29;;;;;;;5.50;2.83;;;26.20;34.50;;;;;;5055940;28;20490;-64
2022/05/05 12:23:59;;;;;;;4.40;2.83;;;26.20;35.00;;;;;;5055774;28;20471;-64
2022/05/05 12:26:30;;;;;;;3.17;2.30;;;26.00;35.00;;;;;;5055571;28;20475;-64
2022/05/05 12:28:58;;;;;;;4.00;2.20;;;26.00;34.60;;;;;;5055467;28;20777;-64
2022/05/05 12:31:25;;;;;;;2.53;2.10;;;26.00;34.10;;;;;;5055615;28;20495;-67
2022/05/05 12:33:53;;;;;;;2.40;1.63;;;26.00;34.10;;;;;;5055128;28;20828;-65
2022/05/05 12:36:19;;;;;;;3.50;2.03;;;25.90;33.50;;;;;;5055578;28;20489;-64
2022/05/05 12:38:48;;;;;;;3.00;2.27;;;25.70;33.30;;;;;;5055573;28;20982;-64
2022/05/05 12:41:15;;;;;;;2.87;1.97;;;25.50;33.80;;;;;;5055364;28;20449;-65
2022/05/05 12:43:42;;;;;;;4.17;3.17;;;25.40;33.50;;;;;;5055790;28;20442;-64
2022/05/05 12:46:09;;;;;;;3.63;2.43;;;25.20;33.50;;;;;;5054858;28;20520;-64
2022/05/05 12:48:40;;;;;;;4.37;2.20;;;25.10;36.40;;;;;;5055415;28;20456;-64
2022/05/05 12:51:17;;;;;;;4.00;2.50;;;25.10;36.00;;;;;;5055403;28;20822;-65
2022/05/05 13:01:57;;;;;;;4.63;2.27;;;25.10;34.00;;;;;;5047843;28;20820;-64
2022/05/05 13:04:24;;;;;;;3.63;1.90;;;25.00;33.70;;;;;;5055154;28;20523;-64
2022/05/05 13:06:52;;;;;;;3.47;2.40;;;24.90;35.80;;;;;;5054828;28;20448;-64
2022/05/05 13:09:19;;;;;;;2.60;1.97;;;24.80;36.90;;;;;;5054725;28;20482;-64
2022/05/05 13:11:51;;;;;;;4.10;2.90;;;24.80;36.90;;;;;;5055060;28;20485;-64
2022/05/05 13:14:20;;;;;;;3.27;2.37;;;24.90;36.70;;;;;;5054944;28;20442;-64
2022/05/05 13:16:48;;;;;;;7.13;2.63;;;25.00;37.10;;;;;;5054869;28;20523;-64
2022/05/05 13:19:15;;;;;;;5.27;2.70;;;25.00;37.60;;;;;;5054880;28;20463;-64
2022/05/05 13:21:42;;;;;;;3.50;2.40;;;25.10;37.60;;;;;;5054726;28;20544;-64
2022/05/05 13:24:10;;;;;;;3.70;2.30;;;25.00;37.80;;;;;;5054394;28;20787;-65
2022/05/05 13:26:38;;;;;;;2.87;2.23;;;25.00;37.90;;;;;;5054196;28;20442;-65
2022/05/05 13:29:07;;;;;;;3.70;2.20;;;24.90;38.10;;;;;;5054513;28;20760;-64
2022/05/05 13:31:34;;;;;;;4.00;2.87;;;25.00;37.80;;;;;;5054254;28;20451;-65
2022/05/05 13:34:03;;;;;;;3.17;2.10;;;25.00;37.80;;;;;;5054529;28;20528;-64
2022/05/05 13:36:29;;;;;;;3.70;2.90;;;25.00;38.00;;;;;;5054157;28;20527;-64
2022/05/05 13:38:57;;;;;;;2.90;2.00;;;24.90;36.40;;;;;;5054373;28;20526;-64
2022/05/05 13:41:24;;;;;;;5.47;2.50;;;24.70;34.70;;;;;;5054292;28;20524;-64
2022/05/05 13:43:51;;;;;;;2.90;2.60;;;24.60;35.70;;;;;;5054285;28;20436;-64
2022/05/05 13:46:19;;;;;;;3.50;2.20;;;24.50;36.10;;;;;;5053918;28;20469;-64
2022/05/05 13:48:46;;;;;;;3.17;2.00;;;24.40;37.10;;;;;;5053976;28;20865;-64
2022/05/05 13:51:13;;;;;;;4.63;2.77;;;24.20;35.50;;;;;;5054040;28;20481;-64